createdAt,value
2022-12-13T00:01:31.436Z,15.97
2022-12-13T00:04:01.274Z,11.10
2022-12-13T00:06:30.592Z,11.63
2022-12-13T00:08:59.090Z,10.10
2022-12-13T00:11:27.468Z,11.27
2022-12-13T00:13:57.176Z,15.53
2022-12-13T00:16:27.410Z,16.37
2022-12-13T00:18:56.815Z,18.20
2022-12-13T00:21:26.493Z,14.53
2022-12-13T00:23:54.547Z,15.40
2022-12-13T00:26:24.707Z,15.47
2022-12-13T00:28:54.026Z,16.10
2022-12-13T00:34:13.733Z,15.83
2022-12-13T00:36:41.621Z,14.47
2022-12-13T00:39:12.707Z,12.87
2022-12-13T00:41:41.420Z,15.57
2022-12-13T00:44:10.302Z,17.67
2022-12-13T00:46:40.311Z,13.20
2022-12-13T00:49:08.880Z,11.27
2022-12-13T00:51:36.973Z,12.67
2022-12-13T00:54:05.231Z,12.17
2022-12-13T00:56:34.515Z,10.40
2022-12-13T00:59:02.482Z,12.60
2022-12-13T01:01:33.150Z,7.53
2022-12-13T01:04:04.587Z,10.73
2022-12-13T01:06:36.819Z,8.93
2022-12-13T01:09:05.539Z,11.10
2022-12-13T01:11:34.056Z,6.77
2022-12-13T01:14:02.229Z,9.10
2022-12-13T01:16:30.176Z,9.77
2022-12-13T01:18:58.370Z,9.23
2022-12-13T01:21:27.621Z,11.93
2022-12-13T01:24:03.148Z,11.43
2022-12-13T01:26:31.514Z,9.53
2022-12-13T01:28:59.813Z,10.93
2022-12-13T01:31:27.860Z,12.37
2022-12-13T01:33:55.797Z,10.33
2022-12-13T01:36:27.144Z,11.77
2022-12-13T01:38:59.075Z,10.17
2022-12-13T01:41:28.978Z,10.07
2022-12-13T01:44:00.880Z,9.77
2022-12-13T01:46:29.263Z,11.60
2022-12-13T01:49:02.617Z,9.07
2022-12-13T01:51:36.499Z,8.93
2022-12-13T01:54:10.241Z,11.53
2022-12-13T01:56:43.352Z,9.60
2022-12-13T01:59:13.543Z,10.57
2022-12-13T02:01:41.778Z,8.97
2022-12-13T02:04:09.683Z,14.87
2022-12-13T02:06:41.642Z,7.33
2022-12-13T02:09:11.615Z,9.40
2022-12-13T02:11:43.510Z,9.77
2022-12-13T02:14:11.769Z,8.60
2022-12-13T02:16:56.947Z,7.97
2022-12-13T02:20:01.684Z,8.47
2022-12-13T02:22:50.635Z,11.97
2022-12-13T02:25:45.520Z,10.37
2022-12-13T02:28:34.031Z,8.43
2022-12-13T02:31:09.983Z,8.33
2022-12-13T02:33:48.054Z,9.97
2022-12-13T02:36:22.764Z,9.27
2022-12-13T02:38:56.055Z,10.80
2022-12-13T02:41:34.176Z,5.43
2022-12-13T02:44:21.756Z,6.20
2022-12-13T02:46:55.922Z,9.93
2022-12-13T02:49:26.406Z,9.37
2022-12-13T02:51:55.300Z,9.47
2022-12-13T02:54:24.591Z,6.10
2022-12-13T02:56:55.968Z,7.60
2022-12-13T02:59:32.286Z,11.57
2022-12-13T03:02:21.758Z,7.73
2022-12-13T03:05:33.520Z,8.33
2022-12-13T03:08:17.072Z,8.93
2022-12-13T03:10:53.168Z,6.30
2022-12-13T03:13:38.031Z,9.53
2022-12-13T03:16:15.761Z,11.03
2022-12-13T03:18:53.679Z,8.63
2022-12-13T03:21:21.575Z,7.60
2022-12-13T03:23:49.552Z,9.20
2022-12-13T03:26:20.996Z,6.60
2022-12-13T03:28:48.921Z,11.90
2022-12-13T03:31:17.225Z,7.37
2022-12-13T03:33:45.212Z,8.57
2022-12-13T03:36:15.449Z,9.80
2022-12-13T03:38:43.383Z,9.47
2022-12-13T03:41:15.368Z,7.50
2022-12-13T03:43:43.832Z,8.70
2022-12-13T03:46:11.983Z,6.60
2022-12-13T03:48:39.962Z,10.57
2022-12-13T03:51:07.763Z,8.47
2022-12-13T03:53:36.851Z,8.13
2022-12-13T03:56:06.914Z,8.30
2022-12-13T03:58:37.987Z,7.93
2022-12-13T04:01:07.657Z,9.80
2022-12-13T04:03:35.749Z,8.27
2022-12-13T04:06:04.031Z,7.10
2022-12-13T04:08:31.952Z,8.13
2022-12-13T04:11:21.241Z,10.53
2022-12-13T04:13:48.020Z,10.03
2022-12-13T04:16:15.843Z,6.83
2022-12-13T04:18:43.884Z,7.60
2022-12-13T04:21:11.736Z,9.03
2022-12-13T04:23:39.527Z,7.17
2022-12-13T04:26:08.784Z,11.87
2022-12-13T04:28:36.564Z,10.17
2022-12-13T04:31:04.451Z,9.07
2022-12-13T04:33:32.654Z,8.60
2022-12-13T04:36:00.683Z,8.03
2022-12-13T04:38:28.628Z,7.17
2022-12-13T04:41:05.865Z,6.67
2022-12-13T04:43:35.061Z,11.83
2022-12-13T04:46:02.883Z,11.43
2022-12-13T04:48:32.301Z,8.97
2022-12-13T04:51:00.952Z,11.13
2022-12-13T04:53:29.698Z,7.23
2022-12-13T04:55:57.486Z,8.30
2022-12-13T04:58:25.253Z,11.10
2022-12-13T05:00:54.473Z,7.27
2022-12-13T05:03:22.418Z,11.13
2022-12-13T05:05:50.627Z,10.30
2022-12-13T05:08:18.516Z,10.63
2022-12-13T05:10:46.361Z,8.23
2022-12-13T05:13:14.137Z,10.77
2022-12-13T05:15:41.920Z,10.17
2022-12-13T05:18:11.641Z,8.07
2022-12-13T05:20:40.464Z,7.43
2022-12-13T05:23:08.524Z,9.13
2022-12-13T05:25:37.446Z,8.80
2022-12-13T05:28:26.770Z,9.10
2022-12-13T05:30:53.841Z,7.70
2022-12-13T05:33:23.364Z,9.77
2022-12-13T05:35:54.983Z,7.43
2022-12-13T05:38:25.623Z,12.40
2022-12-13T05:40:53.396Z,9.20
2022-12-13T05:43:23.796Z,7.53
2022-12-13T05:46:09.749Z,10.33
2022-12-13T05:48:38.983Z,8.93
2022-12-13T05:51:09.801Z,13.97
2022-12-13T05:53:39.949Z,8.00
2022-12-13T05:56:08.867Z,8.77
2022-12-13T05:58:38.233Z,8.63
2022-12-13T06:01:08.204Z,9.37
2022-12-13T06:03:36.312Z,8.23
2022-12-13T06:06:06.783Z,7.90
2022-12-13T06:08:34.981Z,7.13
2022-12-13T06:11:11.556Z,6.63
2022-12-13T06:13:42.151Z,9.03
2022-12-13T06:16:21.831Z,10.40
2022-12-13T06:19:01.000Z,7.83
2022-12-13T06:21:41.750Z,6.23
2022-12-13T06:24:15.246Z,5.60
2022-12-13T06:26:45.182Z,7.80
2022-12-13T06:29:23.496Z,6.03
2022-12-13T06:32:01.735Z,8.20
2022-12-13T06:34:32.834Z,9.83
2022-12-13T06:37:02.379Z,13.13
2022-12-13T06:39:32.369Z,15.27
2022-12-13T06:42:01.837Z,13.93
2022-12-13T06:44:29.704Z,13.63
2022-12-13T06:47:11.210Z,11.23
2022-12-13T06:49:42.409Z,10.97
2022-12-13T06:52:12.911Z,13.23
2022-12-13T06:54:41.199Z,12.47
2022-12-13T06:57:09.164Z,10.30
2022-12-13T06:59:37.002Z,10.90
2022-12-13T07:02:05.103Z,12.53
2022-12-13T07:04:33.078Z,7.83
2022-12-13T07:07:02.545Z,11.93
2022-12-13T07:09:32.180Z,12.50
2022-12-13T07:12:00.676Z,13.73
2022-12-13T07:14:28.536Z,10.63
2022-12-13T07:17:03.172Z,15.00
2022-12-13T07:19:35.561Z,14.17
2022-12-13T07:22:05.484Z,10.57
2022-12-13T07:24:35.698Z,11.80
2022-12-13T07:27:03.680Z,11.07
2022-12-13T07:29:31.619Z,11.93
2022-12-13T07:32:00.984Z,11.97
2022-12-13T07:34:29.776Z,15.10
2022-12-13T07:36:57.548Z,13.90
2022-12-13T07:39:26.731Z,13.10
2022-12-13T07:41:56.778Z,12.73
2022-12-13T07:44:24.934Z,9.83
2022-12-13T07:46:52.979Z,12.77
2022-12-13T07:49:21.140Z,13.97
2022-12-13T07:51:49.041Z,10.07
2022-12-13T07:54:17.039Z,11.23
2022-12-13T07:56:46.019Z,12.60
2022-12-13T07:59:15.380Z,15.43
2022-12-13T08:01:43.451Z,12.97
2022-12-13T08:04:11.295Z,10.83
2022-12-13T08:06:39.752Z,12.87
2022-12-13T08:09:07.683Z,14.97
2022-12-13T08:11:35.536Z,12.67
2022-12-13T08:14:03.540Z,12.57
2022-12-13T08:16:32.877Z,10.10
2022-12-13T08:19:04.410Z,10.80
2022-12-13T08:24:24.443Z,8.07
2022-12-13T08:26:52.376Z,12.40
2022-12-13T08:29:22.523Z,10.20
2022-12-13T08:32:01.959Z,7.47
2022-12-13T08:34:30.174Z,8.10
2022-12-13T08:37:01.713Z,10.03
2022-12-13T08:39:34.431Z,11.47
2022-12-13T08:42:17.124Z,12.17
2022-12-13T08:44:47.692Z,12.00
2022-12-13T08:47:24.532Z,11.30
2022-12-13T08:49:54.494Z,9.03
2022-12-13T08:52:23.518Z,11.63
2022-12-13T08:54:51.415Z,13.13
2022-12-13T08:57:19.255Z,14.20
2022-12-13T08:59:47.009Z,14.30
2022-12-13T09:02:16.892Z,16.77
2022-12-13T09:04:44.802Z,16.00
2022-12-13T09:07:12.569Z,15.60
2022-12-13T09:09:40.391Z,15.73
2022-12-13T09:12:11.048Z,14.50
2022-12-13T09:14:47.964Z,14.33
2022-12-13T09:17:24.709Z,14.17
2022-12-13T09:19:58.105Z,17.17
2022-12-13T09:22:33.427Z,14.00
2022-12-13T09:25:02.736Z,13.43
2022-12-13T09:27:31.229Z,13.33
2022-12-13T09:30:12.819Z,13.07
2022-12-13T09:32:43.470Z,12.10
2022-12-13T09:35:11.248Z,13.43
2022-12-13T09:37:45.518Z,12.90
2022-12-13T09:40:26.129Z,11.60
2022-12-13T09:43:12.254Z,11.47
2022-12-13T09:45:45.004Z,10.37
2022-12-13T09:48:22.467Z,10.17
2022-12-13T09:51:16.617Z,13.30
2022-12-13T09:53:41.808Z,13.47
2022-12-13T09:56:12.821Z,12.57
2022-12-13T09:58:40.717Z,15.23
2022-12-13T10:01:08.828Z,12.30
2022-12-13T10:03:38.088Z,12.43
2022-12-13T10:06:15.219Z,15.10
2022-12-13T10:08:57.375Z,13.53
2022-12-13T10:11:31.742Z,22.37
2022-12-13T10:14:05.058Z,20.10
2022-12-13T10:16:43.549Z,11.90
2022-12-13T10:19:28.481Z,10.87
2022-12-13T10:22:01.588Z,11.30
2022-12-13T10:24:48.284Z,9.83
2022-12-13T10:27:17.818Z,9.37
2022-12-13T10:30:03.461Z,9.10
2022-12-13T10:32:37.653Z,9.20
2022-12-13T10:35:23.242Z,10.10
2022-12-13T10:37:53.092Z,8.47
2022-12-13T10:40:31.936Z,8.80
2022-12-13T10:43:14.833Z,9.37
2022-12-13T10:45:43.470Z,8.47
2022-12-13T10:48:22.121Z,11.77
2022-12-13T10:51:02.841Z,8.90
2022-12-13T10:53:34.121Z,9.43
2022-12-13T10:56:03.905Z,9.13
2022-12-13T10:58:39.960Z,6.47
2022-12-13T11:01:22.619Z,11.70
2022-12-13T11:04:02.306Z,8.87
2022-12-13T11:06:43.929Z,11.83
2022-12-13T11:09:23.416Z,9.57
2022-12-13T11:11:58.163Z,5.50
2022-12-13T11:14:31.623Z,8.77
2022-12-13T11:17:06.417Z,6.80
2022-12-13T11:19:39.921Z,10.00
2022-12-13T11:22:10.547Z,8.90
2022-12-13T11:24:42.075Z,5.77
2022-12-13T11:27:31.553Z,7.03
2022-12-13T11:30:12.812Z,8.27
2022-12-13T11:33:06.381Z,7.67
2022-12-13T11:35:43.920Z,7.43
2022-12-13T11:38:25.837Z,6.60
2022-12-13T11:40:59.826Z,5.47
2022-12-13T11:43:33.839Z,6.23
2022-12-13T11:46:05.895Z,7.57
2022-12-13T11:48:41.840Z,6.80
2022-12-13T11:51:11.785Z,5.43
2022-12-13T11:53:50.710Z,5.83
2022-12-13T11:56:25.993Z,5.83
2022-12-13T11:59:04.729Z,5.67
2022-12-13T12:01:40.417Z,5.03
2022-12-13T12:04:19.075Z,4.90
2022-12-13T12:06:52.579Z,5.20
2022-12-13T12:09:25.073Z,4.97
2022-12-13T12:11:59.986Z,3.60
2022-12-13T12:14:36.883Z,4.00
2022-12-13T12:17:06.572Z,4.30
2022-12-13T12:19:37.983Z,5.80
2022-12-13T12:22:18.176Z,4.70
2022-12-13T12:25:01.172Z,4.70
2022-12-13T12:27:38.011Z,4.40
2022-12-13T12:30:22.835Z,3.80
2022-12-13T12:32:54.969Z,4.03
2022-12-13T12:35:40.412Z,4.70
2022-12-13T12:38:29.259Z,6.07
2022-12-13T12:41:17.335Z,4.03
2022-12-13T12:43:47.565Z,5.33
2022-12-13T12:46:52.368Z,5.40
2022-12-13T12:50:02.788Z,3.43
2022-12-13T12:52:41.548Z,3.53
2022-12-13T12:55:17.405Z,3.33
2022-12-13T12:58:01.473Z,4.07
2022-12-13T13:00:34.880Z,3.03
2022-12-13T13:03:18.896Z,3.77
2022-12-13T13:05:58.529Z,4.77
2022-12-13T13:08:34.261Z,4.17
2022-12-13T13:11:04.115Z,4.27
2022-12-13T13:13:46.341Z,7.53
2022-12-13T13:16:33.440Z,4.33
2022-12-13T13:19:01.492Z,5.33
2022-12-13T13:21:47.187Z,4.90
2022-12-13T13:24:20.837Z,4.43
2022-12-13T13:26:50.304Z,4.27
2022-12-13T13:29:35.462Z,4.37
2022-12-13T13:32:06.746Z,4.13
2022-12-13T13:34:37.004Z,4.53
2022-12-13T13:37:05.880Z,4.57
2022-12-13T13:39:58.568Z,3.63
2022-12-13T13:42:28.189Z,3.80
2022-12-13T13:45:22.528Z,4.00
2022-12-13T13:48:14.472Z,2.17
2022-12-13T13:51:31.870Z,3.57
2022-12-13T13:54:42.988Z,4.63
2022-12-13T14:01:05.248Z,4.43
2022-12-13T14:03:58.884Z,4.50
2022-12-13T14:07:07.135Z,4.50
2022-12-13T14:09:59.059Z,4.07
2022-12-13T14:13:20.124Z,6.57
2022-12-13T14:16:30.619Z,3.37
2022-12-13T14:19:31.004Z,3.87
2022-12-13T14:22:26.132Z,4.63
2022-12-13T14:25:05.244Z,3.87
2022-12-13T14:27:42.084Z,4.10
2022-12-13T14:30:27.233Z,4.50
2022-12-13T14:32:58.678Z,3.67
2022-12-13T14:35:28.851Z,3.67
2022-12-13T14:37:58.799Z,3.07
2022-12-13T14:40:30.203Z,5.13
2022-12-13T14:42:58.555Z,4.43
2022-12-13T14:45:29.338Z,4.43
2022-12-13T14:48:00.548Z,4.70
2022-12-13T14:50:32.579Z,4.10
2022-12-13T14:53:02.955Z,4.70
2022-12-13T14:55:33.031Z,5.87
2022-12-13T14:58:02.240Z,5.03
2022-12-13T15:00:32.669Z,4.20
2022-12-13T15:03:04.982Z,7.67
2022-12-13T15:05:39.452Z,6.53
2022-12-13T15:08:11.409Z,5.17
2022-12-13T15:10:41.664Z,3.80
2022-12-13T15:13:29.149Z,4.20
2022-12-13T15:16:01.186Z,3.23
2022-12-13T15:18:31.100Z,4.37
2022-12-13T15:20:59.480Z,2.93
2022-12-13T15:23:31.095Z,4.50
2022-12-13T15:26:02.008Z,6.13
2022-12-13T15:28:32.939Z,3.17
2022-12-13T15:31:02.516Z,6.03
2022-12-13T15:33:35.402Z,3.20
2022-12-13T15:36:10.278Z,3.23
2022-12-13T15:38:41.431Z,3.67
2022-12-13T15:41:17.772Z,4.87
2022-12-13T15:43:49.039Z,5.17
2022-12-13T15:46:25.809Z,8.17
2022-12-13T15:48:56.821Z,6.30
2022-12-13T15:51:29.871Z,6.40
2022-12-13T15:54:07.191Z,12.13
2022-12-13T15:56:37.411Z,7.73
2022-12-13T15:59:07.674Z,7.90
2022-12-13T16:01:37.500Z,8.60
2022-12-13T16:04:07.463Z,8.13
2022-12-13T16:06:36.355Z,7.27
2022-12-13T16:09:07.735Z,6.63
2022-12-13T16:11:40.132Z,8.10
2022-12-13T16:14:40.044Z,6.03
2022-12-13T16:17:24.307Z,7.80
2022-12-13T16:19:53.625Z,7.37
2022-12-13T16:22:23.680Z,5.83
2022-12-13T16:24:52.762Z,6.83
2022-12-13T16:27:20.624Z,6.93
2022-12-13T16:29:48.403Z,5.10
2022-12-13T16:32:16.254Z,6.47
2022-12-13T16:34:44.081Z,5.40
2022-12-13T16:37:26.124Z,6.37
2022-12-13T16:39:55.000Z,5.10
2022-12-13T16:42:26.297Z,4.93
2022-12-13T16:45:17.888Z,5.67
2022-12-13T16:47:48.355Z,5.63
2022-12-13T16:50:19.390Z,6.57
2022-12-13T16:52:48.830Z,5.60
2022-12-13T16:55:16.947Z,8.27
2022-12-13T16:57:44.739Z,7.00
2022-12-13T17:00:14.318Z,8.50
2022-12-13T17:02:42.165Z,9.80
2022-12-13T17:05:10.222Z,7.23
2022-12-13T17:07:38.001Z,5.70
2022-12-13T17:10:08.708Z,5.90
2022-12-13T17:12:36.463Z,6.67
2022-12-13T17:15:04.785Z,5.10
2022-12-13T17:17:32.563Z,5.73
2022-12-13T17:20:00.362Z,8.40
2022-12-13T17:22:28.260Z,5.63
2022-12-13T17:24:55.988Z,7.37
2022-12-13T17:27:25.127Z,8.07
2022-12-13T17:29:52.889Z,7.43
2022-12-13T17:32:20.758Z,8.27
2022-12-13T17:34:48.635Z,11.00
2022-12-13T17:37:16.486Z,8.30
2022-12-13T17:39:44.481Z,8.10
2022-12-13T17:42:12.239Z,8.47
2022-12-13T17:44:41.396Z,4.57
2022-12-13T17:47:09.664Z,6.00
2022-12-13T17:49:38.019Z,9.27
2022-12-13T17:52:06.392Z,5.13
2022-12-13T17:54:34.231Z,5.60
2022-12-13T17:57:02.038Z,6.43
2022-12-13T17:59:29.834Z,6.23
2022-12-13T18:01:59.025Z,4.67
2022-12-13T18:04:26.860Z,9.60
2022-12-13T18:06:56.424Z,3.80
2022-12-13T18:09:24.171Z,3.80
2022-12-13T18:11:51.976Z,5.33
2022-12-13T18:14:19.744Z,8.30
2022-12-13T18:16:47.639Z,5.87
2022-12-13T18:19:16.831Z,8.00
2022-12-13T18:21:44.846Z,6.60
2022-12-13T18:24:13.097Z,9.10
2022-12-13T18:26:40.878Z,5.60
2022-12-13T18:29:08.696Z,12.27
2022-12-13T18:31:36.508Z,7.83
2022-12-13T18:34:04.874Z,9.30
2022-12-13T18:36:34.802Z,10.77
2022-12-13T18:39:03.215Z,8.57
2022-12-13T18:41:32.322Z,8.00
2022-12-13T18:44:02.577Z,8.83
2022-12-13T18:46:31.782Z,6.83
2022-12-13T18:49:00.113Z,7.07
2022-12-13T18:51:28.475Z,6.83
2022-12-13T18:53:58.156Z,7.77
2022-12-13T18:56:26.411Z,6.30
2022-12-13T18:58:54.840Z,4.90
2022-12-13T19:01:26.671Z,6.40
2022-12-13T19:03:54.964Z,6.00
2022-12-13T19:06:25.129Z,7.33
2022-12-13T19:08:54.603Z,3.77
2022-12-13T19:11:25.752Z,5.70
2022-12-13T19:13:53.788Z,4.43
2022-12-13T19:16:23.255Z,5.80
2022-12-13T19:18:51.179Z,4.17
2022-12-13T19:21:20.640Z,3.90
2022-12-13T19:23:56.443Z,4.20
2022-12-13T19:26:27.914Z,4.60
2022-12-13T19:28:57.514Z,5.37
2022-12-13T19:31:30.844Z,7.67
2022-12-13T19:34:00.382Z,5.00
2022-12-13T19:36:28.216Z,5.20
2022-12-13T19:38:56.725Z,5.93
2022-12-13T19:41:26.105Z,5.70
2022-12-13T19:43:54.073Z,5.13
2022-12-13T19:46:22.690Z,4.80
2022-12-13T19:48:50.652Z,4.83
2022-12-13T19:51:18.456Z,5.87
2022-12-13T19:53:46.237Z,5.87
2022-12-13T19:56:17.380Z,5.70
2022-12-13T19:58:47.508Z,6.23
2022-12-13T20:01:16.121Z,7.33
2022-12-13T20:03:46.167Z,7.13
2022-12-13T20:06:16.830Z,5.90
2022-12-13T20:08:44.879Z,6.07
2022-12-13T20:11:15.409Z,7.87
2022-12-13T20:13:43.207Z,5.30
2022-12-13T20:16:17.830Z,7.03
2022-12-13T20:18:46.268Z,6.97
2022-12-13T20:21:15.491Z,4.80
2022-12-13T20:23:49.150Z,5.30
2022-12-13T20:26:20.989Z,4.70
2022-12-13T20:28:49.322Z,4.23
2022-12-13T20:31:20.054Z,4.03
2022-12-13T20:33:47.941Z,7.27
2022-12-13T20:36:25.837Z,4.63
2022-12-13T20:38:55.599Z,5.43
2022-12-13T20:41:24.470Z,4.60
2022-12-13T20:43:52.881Z,5.43
2022-12-13T20:46:23.000Z,4.43
2022-12-13T20:48:51.160Z,6.85
2022-12-13T20:51:20.881Z,6.27
2022-12-13T20:53:50.552Z,6.00
2022-12-13T20:56:20.201Z,7.33
2022-12-13T20:58:48.277Z,6.73
2022-12-13T21:01:18.185Z,7.73
2022-12-13T21:03:48.179Z,5.60
2022-12-13T21:06:16.453Z,5.37
2022-12-13T21:08:53.765Z,6.10
2022-12-13T21:11:26.105Z,7.80
2022-12-13T21:14:03.999Z,7.07
2022-12-13T21:16:36.757Z,7.63
2022-12-13T21:19:06.850Z,7.00
2022-12-13T21:21:34.788Z,5.37
2022-12-13T21:24:03.089Z,8.77
2022-12-13T21:26:35.289Z,5.50
2022-12-13T21:29:06.204Z,8.93
2022-12-13T21:31:35.110Z,8.53
2022-12-13T21:34:03.561Z,7.07
2022-12-13T21:36:34.474Z,8.13
2022-12-13T21:39:05.002Z,7.07
2022-12-13T21:41:33.124Z,7.77
2022-12-13T21:44:01.055Z,8.87
2022-12-13T21:47:09.780Z,9.23
2022-12-13T21:49:18.724Z,9.13
2022-12-13T21:51:48.655Z,9.43
2022-12-13T21:54:17.723Z,6.90
2022-12-13T21:57:03.020Z,8.43
2022-12-13T21:59:31.567Z,8.43
2022-12-13T22:02:14.382Z,7.50
2022-12-13T22:04:44.330Z,9.20
2022-12-13T22:07:15.135Z,8.23
2022-12-13T22:09:43.082Z,11.57
2022-12-13T22:12:17.833Z,8.30
2022-12-13T22:14:45.823Z,8.13
2022-12-13T22:17:13.892Z,6.00
2022-12-13T22:19:41.708Z,8.10
2022-12-13T22:22:09.555Z,7.93
2022-12-13T22:24:38.706Z,9.43
2022-12-13T22:27:06.480Z,9.10
2022-12-13T22:29:34.308Z,8.20
2022-12-13T22:32:02.092Z,8.43
2022-12-13T22:34:29.947Z,8.53
2022-12-13T22:36:57.784Z,7.13
2022-12-13T22:39:25.813Z,8.77
2022-12-13T22:41:54.953Z,6.57
2022-12-13T22:44:22.705Z,9.37
2022-12-13T22:46:50.453Z,8.97
2022-12-13T22:49:18.330Z,8.37
2022-12-13T22:51:46.489Z,7.73
2022-12-13T22:54:14.277Z,7.30
2022-12-13T22:56:42.064Z,7.00
2022-12-13T22:59:11.156Z,10.07
2022-12-13T23:01:42.182Z,6.73
2022-12-13T23:04:15.383Z,7.07
2022-12-13T23:06:43.518Z,12.00
2022-12-13T23:09:13.545Z,9.53
2022-12-13T23:12:01.764Z,9.97
2022-12-13T23:14:32.871Z,8.70
2022-12-13T23:17:01.714Z,10.37
2022-12-13T23:19:49.724Z,8.87
2022-12-13T23:22:18.264Z,10.43
2022-12-13T23:24:46.061Z,8.63
2022-12-13T23:27:13.866Z,7.33
2022-12-13T23:29:43.143Z,7.60
2022-12-13T23:32:10.959Z,7.20
2022-12-13T23:34:38.796Z,7.50
2022-12-13T23:37:06.606Z,8.43
2022-12-13T23:39:34.336Z,10.00
2022-12-13T23:42:02.072Z,8.93
2022-12-13T23:44:29.792Z,9.40
2022-12-13T23:46:58.885Z,7.60
2022-12-13T23:49:26.653Z,6.33
2022-12-13T23:51:54.680Z,7.53
2022-12-13T23:54:22.531Z,8.63
2022-12-13T23:56:50.692Z,9.00
2022-12-13T23:59:18.828Z,8.63
